Time;durP1;ratioP1;P1;durP2;ratioP2;P2;SDS_P1;SDS_P2;PMS_P1;PMS_P2;Temp;Humidity;BMP_temperature;BMP_pressure;BME280_temperature;BME280_humidity;BME280_pressure;Samples;Min_cycle;Max_cycle;Signal;HPM_P1;HPM_P2
2023/11/24 00:00:46;;;;;;;7.40;2.83;;;11.40;99.90;;;;;;5040756;28;20218;-62
2023/11/24 00:03:14;;;;;;;9.20;2.63;;;11.40;99.90;;;;;;5032266;28;20225;-63
2023/11/24 00:05:43;;;;;;;10.37;2.40;;;11.50;99.90;;;;;;5021533;28;20703;-62
2023/11/24 00:08:11;;;;;;;13.70;3.17;;;11.50;99.90;;;;;;5020758;28;20241;-62
2023/11/24 00:10:40;;;;;;;11.40;2.40;;;11.40;99.90;;;;;;5024576;28;20221;-62
2023/11/24 00:13:09;;;;;;;18.67;3.43;;;11.40;99.90;;;;;;5023845;28;20213;-62
2023/11/24 00:15:42;;;;;;;24.53;3.60;;;11.40;99.90;;;;;;5023108;28;20223;-63
2023/11/24 00:18:11;;;;;;;11.83;3.40;;;11.30;99.90;;;;;;5019259;28;20234;-63
2023/11/24 00:20:39;;;;;;;14.77;3.43;;;11.20;95.60;;;;;;5022518;28;20307;-65
2023/11/24 00:23:07;;;;;;;18.33;3.87;;;11.20;91.90;;;;;;5016571;28;20275;-63
2023/11/24 00:25:37;;;;;;;14.50;3.20;;;11.20;90.40;;;;;;5019767;28;20182;-63
2023/11/24 00:28:05;;;;;;;13.77;3.30;;;11.10;89.90;;;;;;5020478;28;20620;-63
2023/11/24 00:30:35;;;;;;;21.23;3.43;;;11.10;73.30;;;;;;5020343;28;20218;-64
2023/11/24 00:33:03;;;;;;;24.53;4.77;;;11.10;74.90;;;;;;5020411;28;20316;-63
2023/11/24 00:35:32;;;;;;;23.53;4.40;;;11.00;70.10;;;;;;5023169;28;20699;-63
2023/11/24 00:38:01;;;;;;;19.43;3.40;;;11.00;66.00;;;;;;5023410;28;20529;-63
2023/11/24 00:40:30;;;;;;;17.43;3.33;;;11.00;70.30;;;;;;5020114;28;20564;-63
2023/11/24 00:43:00;;;;;;;18.50;3.70;;;11.00;68.70;;;;;;5021307;28;20218;-63
2023/11/24 00:45:28;;;;;;;27.83;3.73;;;10.90;63.10;;;;;;5023341;28;20220;-63
2023/11/24 00:47:58;;;;;;;25.27;3.80;;;10.90;58.20;;;;;;5020331;28;20316;-63
2023/11/24 00:50:26;;;;;;;15.27;3.47;;;10.90;64.80;;;;;;5016891;28;20279;-63
2023/11/24 00:52:55;;;;;;;32.13;4.20;;;10.80;61.30;;;;;;5019187;28;20203;-62
2023/11/24 00:55:24;;;;;;;18.33;3.83;;;10.80;65.70;;;;;;5019540;28;20217;-63
2023/11/24 00:57:52;;;;;;;19.10;4.33;;;10.90;61.40;;;;;;5023606;28;20676;-63
2023/11/24 01:00:20;;;;;;;21.90;3.80;;;10.80;61.10;;;;;;5018989;28;20233;-63
2023/11/24 01:02:49;;;;;;;23.13;4.17;;;10.80;61.90;;;;;;5018573;28;20237;-63
2023/11/24 01:05:20;;;;;;;14.17;3.87;;;10.80;64.00;;;;;;5019252;28;20280;-63
2023/11/24 01:07:48;;;;;;;19.77;4.13;;;10.80;62.90;;;;;;5019824;28;20582;-62
2023/11/24 01:10:17;;;;;;;17.93;3.90;;;10.80;66.60;;;;;;5020978;28;20197;-63
2023/11/24 01:12:45;;;;;;;22.50;3.80;;;10.70;71.90;;;;;;5020638;28;20221;-63
2023/11/24 01:15:14;;;;;;;19.77;3.50;;;10.70;71.40;;;;;;5014227;28;20733;-63
2023/11/24 01:17:44;;;;;;;15.67;4.17;;;10.70;73.70;;;;;;5021741;28;20747;-63
2023/11/24 01:20:16;;;;;;;24.27;4.23;;;10.60;77.70;;;;;;5020695;28;20233;-63
2023/11/24 01:22:46;;;;;;;21.43;4.30;;;10.50;80.50;;;;;;5017584;28;20206;-62
2023/11/24 01:25:14;;;;;;;25.77;4.40;;;10.40;85.70;;;;;;5025033;28;20197;-63
2023/11/24 01:27:42;;;;;;;13.90;3.83;;;10.30;91.20;;;;;;5021329;28;20248;-64
2023/11/24 01:30:11;;;;;;;18.60;3.57;;;10.20;95.40;;;;;;5018814;28;20246;-64
2023/11/24 01:32:40;;;;;;;22.57;3.93;;;10.10;96.00;;;;;;5024629;28;20225;-63
2023/11/24 01:35:09;;;;;;;19.37;3.20;;;10.10;96.60;;;;;;5016257;28;20222;-63
2023/11/24 01:37:37;;;;;;;16.43;3.37;;;10.10;93.20;;;;;;5019214;28;20304;-63
2023/11/24 01:40:10;;;;;;;18.33;3.93;;;10.10;85.20;;;;;;5035464;28;20230;-63
2023/11/24 01:42:38;;;;;;;17.13;3.60;;;10.10;85.10;;;;;;5015148;28;20229;-63
2023/11/24 01:45:09;;;;;;;19.50;3.63;;;10.10;78.20;;;;;;5021610;28;20312;-63
2023/11/24 01:47:38;;;;;;;24.80;4.70;;;10.10;74.70;;;;;;5024254;28;20227;-63
2023/11/24 01:50:08;;;;;;;18.70;3.30;;;10.20;63.80;;;;;;5019368;28;20270;-62
2023/11/24 01:52:37;;;;;;;19.20;3.37;;;10.20;60.90;;;;;;5019656;28;20256;-63
2023/11/24 01:55:08;;;;;;;19.73;3.67;;;10.10;64.20;;;;;;5020255;28;20238;-63
2023/11/24 01:57:39;;;;;;;15.13;3.10;;;10.10;67.10;;;;;;5019006;28;20217;-63
2023/11/24 02:00:12;;;;;;;16.53;3.03;;;10.10;62.60;;;;;;5021989;28;20244;-63
2023/11/24 02:02:41;;;;;;;14.80;3.67;;;10.00;64.30;;;;;;5015980;28;20304;-63
2023/11/24 02:05:11;;;;;;;19.40;3.40;;;10.00;65.20;;;;;;5018909;28;20321;-62
2023/11/24 02:07:41;;;;;;;24.73;4.70;;;10.00;63.30;;;;;;5020746;28;20280;-63
2023/11/24 02:10:12;;;;;;;22.63;3.63;;;10.00;68.80;;;;;;5018170;28;20214;-63
2023/11/24 02:12:40;;;;;;;17.73;3.60;;;10.00;72.50;;;;;;5021752;28;20268;-63
2023/11/24 02:15:09;;;;;;;18.97;3.60;;;9.90;80.40;;;;;;5020882;28;20305;-62
2023/11/24 02:17:38;;;;;;;14.50;3.27;;;9.90;89.70;;;;;;5016069;28;20224;-63
2023/11/24 02:20:13;;;;;;;17.17;3.20;;;9.90;92.70;;;;;;5020156;28;20681;-62
2023/11/24 02:22:44;;;;;;;17.00;3.67;;;9.90;93.20;;;;;;5019593;28;20755;-62
2023/11/24 02:25:13;;;;;;;13.37;3.33;;;9.90;92.40;;;;;;5019149;28;20223;-63
2023/11/24 02:27:41;;;;;;;18.67;3.70;;;9.80;94.30;;;;;;5016367;28;20234;-63
2023/11/24 02:30:11;;;;;;;18.93;3.93;;;9.80;92.90;;;;;;5019760;28;20313;-62
2023/11/24 02:32:39;;;;;;;16.23;3.57;;;9.80;94.20;;;;;;5021772;28;20217;-63
2023/11/24 02:35:09;;;;;;;14.70;3.10;;;9.70;94.30;;;;;;5014983;28;20228;-62
2023/11/24 02:37:38;;;;;;;18.63;3.33;;;9.70;94.90;;;;;;5019206;28;20185;-62
2023/11/24 02:40:09;;;;;;;15.93;3.43;;;9.60;93.80;;;;;;5019219;28;20240;-62
2023/11/24 02:42:37;;;;;;;19.80;3.73;;;9.60;89.20;;;;;;5017623;28;20232;-62
2023/11/24 02:45:07;;;;;;;15.70;3.07;;;9.40;91.50;;;;;;5021715;28;20292;-62
2023/11/24 02:47:35;;;;;;;21.97;3.50;;;9.40;91.10;;;;;;5020388;28;20234;-62
2023/11/24 02:50:04;;;;;;;25.70;4.13;;;9.30;88.70;;;;;;5016693;28;20200;-62
2023/11/24 02:52:32;;;;;;;16.07;3.50;;;9.20;90.90;;;;;;5018489;28;20193;-63
2023/11/24 02:55:00;;;;;;;16.67;3.20;;;9.20;85.60;;;;;;5019181;28;20221;-62
2023/11/24 02:57:31;;;;;;;12.13;2.90;;;9.10;83.10;;;;;;5017555;28;20726;-62
2023/11/24 03:00:00;;;;;;;19.53;3.30;;;9.10;83.40;;;;;;5022345;28;20765;-62
2023/11/24 03:02:28;;;;;;;16.47;3.97;;;9.00;82.20;;;;;;5019721;28;20229;-62
2023/11/24 03:04:56;;;;;;;18.53;3.67;;;9.00;77.60;;;;;;5020069;28;20667;-63
2023/11/24 03:07:25;;;;;;;16.37;3.30;;;8.90;77.70;;;;;;5021875;28;20312;-63
2023/11/24 03:09:53;;;;;;;20.63;4.13;;;8.90;74.50;;;;;;5018636;28;20596;-63
2023/11/24 03:12:22;;;;;;;15.80;3.27;;;8.80;76.20;;;;;;5014682;28;20229;-63
2023/11/24 03:14:53;;;;;;;19.20;4.03;;;8.80;76.70;;;;;;5021495;28;20228;-63
2023/11/24 03:17:22;;;;;;;16.53;3.83;;;8.70;79.50;;;;;;5018731;28;20240;-62
2023/11/24 03:19:50;;;;;;;18.13;3.20;;;8.60;79.80;;;;;;5023745;28;20607;-62
2023/11/24 03:22:18;;;;;;;18.73;3.67;;;8.60;82.50;;;;;;5022437;28;20196;-62
2023/11/24 03:24:46;;;;;;;18.37;3.43;;;8.50;83.30;;;;;;5026470;28;20213;-63
2023/11/24 03:27:14;;;;;;;13.17;3.23;;;8.50;82.10;;;;;;5022762;28;20222;-62
2023/11/24 03:29:43;;;;;;;18.67;3.20;;;8.50;77.10;;;;;;5021507;28;20226;-62
2023/11/24 03:32:12;;;;;;;16.73;3.17;;;8.50;71.00;;;;;;5020477;28;20221;-62
2023/11/24 03:34:40;;;;;;;12.23;3.37;;;8.40;73.60;;;;;;5021555;28;20195;-62
2023/11/24 03:37:09;;;;;;;14.83;3.23;;;8.40;75.30;;;;;;5020588;28;20225;-63
2023/11/24 03:39:37;;;;;;;18.00;3.03;;;8.40;77.20;;;;;;5020212;28;20241;-63
2023/11/24 03:42:05;;;;;;;13.87;3.23;;;8.30;84.40;;;;;;5019744;28;20242;-62
2023/11/24 03:44:33;;;;;;;17.03;3.10;;;8.20;84.10;;;;;;5020384;28;20222;-63
2023/11/24 03:47:01;;;;;;;17.10;3.27;;;8.20;85.10;;;;;;5023040;28;20190;-63
2023/11/24 03:49:31;;;;;;;18.43;3.93;;;8.10;90.10;;;;;;5020433;28;20281;-62
2023/11/24 03:52:00;;;;;;;18.37;3.33;;;8.10;91.20;;;;;;5019870;28;20366;-63
2023/11/24 03:54:29;;;;;;;13.43;3.40;;;8.00;92.00;;;;;;5018933;28;20221;-63
2023/11/24 03:56:57;;;;;;;13.47;3.57;;;8.00;93.60;;;;;;5020115;28;20223;-63
2023/11/24 03:59:25;;;;;;;20.17;3.63;;;8.00;94.10;;;;;;5019998;28;20236;-62
2023/11/24 04:01:53;;;;;;;16.40;3.70;;;8.00;94.40;;;;;;5018615;28;20681;-62
2023/11/24 04:04:22;;;;;;;13.53;2.97;;;7.90;95.20;;;;;;5016927;28;20201;-63
2023/11/24 04:06:51;;;;;;;19.63;3.27;;;8.00;96.50;;;;;;5026715;28;20269;-62
2023/11/24 04:09:20;;;;;;;12.80;3.23;;;7.90;97.20;;;;;;5021465;28;20228;-63
2023/11/24 04:11:48;;;;;;;17.67;3.50;;;7.90;97.20;;;;;;5022614;28;20221;-62
2023/11/24 04:14:16;;;;;;;20.57;4.27;;;7.80;97.30;;;;;;5019984;28;20225;-63
2023/11/24 04:16:44;;;;;;;25.57;3.53;;;7.80;98.90;;;;;;5019336;28;20549;-61
2023/11/24 04:19:12;;;;;;;19.70;3.60;;;7.80;99.60;;;;;;5021652;28;20216;-63
2023/11/24 04:21:40;;;;;;;20.07;3.53;;;7.80;99.90;;;;;;5022903;28;20224;-63
2023/11/24 04:24:10;;;;;;;13.70;3.67;;;7.70;99.90;;;;;;5020132;28;20225;-62
2023/11/24 04:26:39;;;;;;;19.87;3.40;;;7.70;99.90;;;;;;5021339;28;20279;-62
2023/11/24 04:29:07;;;;;;;17.43;3.50;;;7.60;99.90;;;;;;5015828;28;20248;-62
2023/11/24 04:31:35;;;;;;;20.03;4.03;;;7.60;99.90;;;;;;5020399;28;20202;-63
2023/11/24 04:34:03;;;;;;;22.83;4.27;;;7.60;99.90;;;;;;5023007;28;20213;-63
2023/11/24 04:36:32;;;;;;;20.53;4.10;;;7.70;99.90;;;;;;5017977;28;20267;-62
2023/11/24 04:39:00;;;;;;;16.70;3.73;;;7.70;99.90;;;;;;5021015;28;20222;-63
2023/11/24 04:41:30;;;;;;;12.60;3.07;;;7.70;99.90;;;;;;5024559;28;20222;-62
2023/11/24 04:43:58;;;;;;;24.37;3.90;;;7.70;99.90;;;;;;5022287;28;20205;-62
2023/11/24 04:46:26;;;;;;;15.27;3.13;;;7.80;99.90;;;;;;5022728;28;20207;-62
2023/11/24 04:48:56;;;;;;;18.23;3.80;;;7.70;99.90;;;;;;5020763;28;20316;-62
2023/11/24 04:51:25;;;;;;;14.17;3.43;;;7.70;99.90;;;;;;5019272;28;20249;-63
2023/11/24 04:53:55;;;;;;;17.63;3.23;;;7.70;99.90;;;;;;5017591;28;20209;-63
2023/11/24 04:56:25;;;;;;;15.23;3.67;;;7.60;99.90;;;;;;5024244;28;20222;-62
2023/11/24 04:58:54;;;;;;;21.17;4.00;;;7.60;99.90;;;;;;5023395;28;20194;-62
2023/11/24 05:01:23;;;;;;;19.77;3.17;;;7.60;99.90;;;;;;5016309;28;20203;-63
2023/11/24 05:03:55;;;;;;;21.73;4.10;;;7.60;99.90;;;;;;5036793;28;20245;-63
2023/11/24 05:06:23;;;;;;;20.20;3.73;;;7.50;99.90;;;;;;5022951;28;20683;-62
2023/11/24 05:08:52;;;;;;;25.33;4.33;;;7.60;99.90;;;;;;5018977;28;20225;-62
2023/11/24 05:11:21;;;;;;;17.13;3.00;;;7.50;99.90;;;;;;5021479;28;20223;-62
2023/11/24 05:13:49;;;;;;;11.07;2.80;;;7.50;99.90;;;;;;5020743;28;20194;-62
2023/11/24 05:16:19;;;;;;;20.97;3.13;;;7.50;99.90;;;;;;5020027;28;20228;-63
2023/11/24 05:18:49;;;;;;;21.77;3.43;;;7.40;99.90;;;;;;5024454;28;20221;-62
2023/11/24 05:21:17;;;;;;;11.87;3.43;;;7.40;99.90;;;;;;5019585;28;20302;-62
2023/11/24 05:23:45;;;;;;;21.00;5.87;;;7.40;99.90;;;;;;5019808;28;20224;-62
2023/11/24 05:26:13;;;;;;;12.93;6.77;;;7.30;99.90;;;;;;5019831;28;20222;-62
2023/11/24 05:28:42;;;;;;;18.77;5.27;;;7.20;99.90;;;;;;5022177;28;20204;-63
2023/11/24 05:31:12;;;;;;;16.03;4.13;;;7.20;99.90;;;;;;5040283;28;20588;-64
2023/11/24 05:33:42;;;;;;;17.80;4.00;;;7.00;99.90;;;;;;5038669;28;20342;-63
2023/11/24 05:36:10;;;;;;;17.80;4.10;;;7.00;99.90;;;;;;5038514;28;20236;-62
2023/11/24 05:38:39;;;;;;;16.60;4.00;;;6.90;99.90;;;;;;5042360;28;20224;-62
2023/11/24 05:41:07;;;;;;;15.30;3.50;;;6.90;99.90;;;;;;5041908;28;20236;-62
2023/11/24 05:43:36;;;;;;;24.73;4.43;;;6.90;99.90;;;;;;5040215;28;20277;-63
2023/11/24 05:46:06;;;;;;;25.07;4.90;;;6.80;99.90;;;;;;5018242;28;20316;-63
2023/11/24 05:48:34;;;;;;;20.63;4.07;;;6.80;99.90;;;;;;5019162;28;20220;-62
2023/11/24 05:51:05;;;;;;;21.77;4.30;;;6.90;99.90;;;;;;5020856;28;20312;-62
2023/11/24 05:53:34;;;;;;;23.33;3.80;;;6.90;99.90;;;;;;5019447;28;20225;-63
2023/11/24 05:56:05;;;;;;;19.90;3.83;;;7.00;99.90;;;;;;5019683;28;20210;-62
2023/11/24 05:58:34;;;;;;;16.23;3.80;;;7.00;99.90;;;;;;5020636;28;20276;-63
2023/11/24 06:01:03;;;;;;;25.90;5.10;;;7.10;99.90;;;;;;5015812;28;20221;-63
2023/11/24 06:03:32;;;;;;;22.70;5.10;;;7.10;99.90;;;;;;5020195;28;20253;-62
2023/11/24 06:06:01;;;;;;;27.07;5.00;;;7.20;99.90;;;;;;5019887;28;20718;-63
2023/11/24 06:08:30;;;;;;;18.73;4.60;;;7.10;99.90;;;;;;5023017;28;20217;-62
2023/11/24 06:10:59;;;;;;;23.27;5.70;;;7.10;99.90;;;;;;5014942;28;20186;-62
2023/11/24 06:13:27;;;;;;;19.10;5.60;;;7.10;99.90;;;;;;5015585;28;20194;-62
2023/11/24 06:15:56;;;;;;;20.80;3.63;;;7.10;99.90;;;;;;5016556;28;20311;-63
2023/11/24 06:18:25;;;;;;;23.47;4.63;;;7.10;99.90;;;;;;5018766;28;20708;-62
2023/11/24 06:20:54;;;;;;;17.00;4.27;;;7.00;99.90;;;;;;5018665;28;20271;-63
2023/11/24 06:23:22;;;;;;;17.27;3.90;;;7.00;99.90;;;;;;5017319;28;20236;-62
2023/11/24 06:25:52;;;;;;;21.47;4.73;;;7.00;99.90;;;;;;5013139;28;20526;-62
2023/11/24 06:28:20;;;;;;;15.57;3.93;;;6.90;99.90;;;;;;5019088;28;20221;-62
2023/11/24 06:30:49;;;;;;;20.80;4.13;;;6.90;99.90;;;;;;5019325;28;20310;-63
2023/11/24 06:33:17;;;;;;;16.33;3.53;;;6.90;99.90;;;;;;5021134;28;20580;-63
2023/11/24 06:35:45;;;;;;;16.83;3.67;;;6.90;99.90;;;;;;5020987;28;20229;-62
2023/11/24 06:38:14;;;;;;;16.67;4.03;;;6.90;99.90;;;;;;5016977;28;20220;-63
2023/11/24 06:40:43;;;;;;;20.70;4.20;;;6.80;99.90;;;;;;5018138;28;20213;-63
2023/11/24 06:43:14;;;;;;;28.17;7.37;;;6.80;99.90;;;;;;5040200;28;20616;-63
2023/11/24 06:45:44;;;;;;;30.33;5.30;;;6.80;99.90;;;;;;5039806;28;20232;-63
2023/11/24 06:48:13;;;;;;;22.93;4.83;;;6.80;99.90;;;;;;5039262;28;21856;-63
2023/11/24 06:50:45;;;;;;;14.40;3.67;;;6.80;99.90;;;;;;5033161;28;20240;-63
2023/11/24 06:53:14;;;;;;;23.00;3.80;;;6.80;99.90;;;;;;5022671;28;20234;-62
2023/11/24 06:55:43;;;;;;;14.80;3.40;;;6.90;99.90;;;;;;5026079;28;20264;-63
2023/11/24 06:58:21;;;;;;;13.87;3.70;;;6.80;99.90;;;;;;5023448;28;20221;-65
2023/11/24 07:00:53;;;;;;;15.13;4.07;;;6.80;99.90;;;;;;5022873;28;20626;-63
2023/11/24 07:03:22;;;;;;;17.03;4.30;;;6.80;99.90;;;;;;5024210;28;20217;-63
2023/11/24 07:05:51;;;;;;;17.33;3.90;;;6.80;99.90;;;;;;5027889;28;20225;-63
2023/11/24 07:08:20;;;;;;;21.30;3.90;;;6.80;99.90;;;;;;5021851;28;20615;-63
2023/11/24 07:10:58;;;;;;;13.73;4.00;;;6.90;99.90;;;;;;5017217;28;20181;-62
2023/11/24 07:13:29;;;;;;;15.43;4.30;;;6.90;99.90;;;;;;5039021;28;20208;-64
2023/11/24 07:16:01;;;;;;;15.70;3.37;;;6.80;99.90;;;;;;5022786;28;20222;-62
2023/11/24 07:18:32;;;;;;;19.90;3.40;;;6.90;99.90;;;;;;5025461;28;20260;-63
2023/11/24 07:21:01;;;;;;;20.03;3.63;;;6.90;99.90;;;;;;5020042;28;20915;-63
2023/11/24 07:23:37;;;;;;;18.57;3.93;;;6.90;99.90;;;;;;5017638;28;20520;-63
2023/11/24 07:26:07;;;;;;;18.93;3.90;;;7.00;99.90;;;;;;5016026;28;20867;-62
2023/11/24 07:28:42;;;;;;;15.80;3.20;;;7.00;99.90;;;;;;5015594;28;20201;-63
2023/11/24 07:31:14;;;;;;;17.00;3.10;;;7.10;99.90;;;;;;5017455;28;20223;-63
2023/11/24 07:33:43;;;;;;;18.93;3.87;;;7.20;99.90;;;;;;5019308;28;20311;-64
2023/11/24 07:36:12;;;;;;;10.83;3.20;;;7.20;95.60;;;;;;5021252;28;20229;-63
2023/11/24 07:38:41;;;;;;;12.65;3.25;;;7.30;92.70;;;;;;5019327;28;20439;-63
2023/11/24 07:41:10;;;;;;;12.33;2.70;;;7.30;83.80;;;;;;5017990;28;20308;-63
2023/11/24 07:43:42;;;;;;;15.20;3.20;;;7.40;74.80;;;;;;5020540;28;20205;-63
2023/11/24 07:46:11;;;;;;;22.07;3.70;;;7.40;65.70;;;;;;5023252;28;20217;-64
2023/11/24 07:48:42;;;;;;;12.47;2.80;;;7.40;65.20;;;;;;5020887;28;20213;-63
2023/11/24 07:51:14;;;;;;;12.57;2.90;;;7.40;65.10;;;;;;5025143;28;20228;-63
2023/11/24 07:53:42;;;;;;;10.40;3.13;;;7.50;61.90;;;;;;5017266;28;20300;-63
2023/11/24 07:56:11;;;;;;;14.00;3.33;;;7.60;59.40;;;;;;5020661;28;20249;-64
2023/11/24 07:58:42;;;;;;;6.23;2.63;;;7.60;55.80;;;;;;5022604;28;20297;-63
2023/11/24 08:01:13;;;;;;;10.07;2.70;;;7.70;51.30;;;;;;5017168;28;20765;-64
2023/11/24 08:03:43;;;;;;;9.13;2.57;;;7.80;50.70;;;;;;5013185;28;20257;-63
2023/11/24 08:06:15;;;;;;;10.63;3.07;;;7.80;44.50;;;;;;5018420;28;20324;-64
2023/11/24 08:08:45;;;;;;;12.83;2.80;;;7.90;41.20;;;;;;5017371;28;20221;-63
2023/11/24 08:11:13;;;;;;;14.27;3.97;;;8.00;36.40;;;;;;5017219;28;20230;-63
2023/11/24 08:13:43;;;;;;;11.97;2.90;;;8.00;34.10;;;;;;5021289;28;20207;-63
2023/11/24 08:16:12;;;;;;;10.97;2.90;;;8.10;35.20;;;;;;5019134;28;20229;-63
2023/11/24 08:18:40;;;;;;;7.73;2.53;;;8.10;27.70;;;;;;5017859;28;20228;-63
2023/11/24 08:21:09;;;;;;;18.13;3.23;;;8.10;23.10;;;;;;5018816;28;20651;-63
2023/11/24 08:23:38;;;;;;;8.87;2.40;;;8.20;20.20;;;;;;5018858;28;20225;-63
2023/11/24 08:26:06;;;;;;;14.57;2.93;;;8.20;18.40;;;;;;5023010;28;20248;-63
2023/11/24 08:28:35;;;;;;;11.73;2.93;;;8.20;19.30;;;;;;5043896;28;20197;-63
2023/11/24 08:31:05;;;;;;;6.87;2.47;;;8.20;17.60;;;;;;5045112;28;20205;-64
2023/11/24 08:33:33;;;;;;;11.07;2.50;;;8.20;20.00;;;;;;5038400;28;20314;-63
2023/11/24 08:36:01;;;;;;;10.70;2.73;;;8.20;20.80;;;;;;5042931;28;20316;-63
2023/11/24 08:38:30;;;;;;;14.63;2.40;;;8.30;20.10;;;;;;5035903;28;20214;-63
2023/11/24 08:40:58;;;;;;;16.83;2.87;;;8.30;21.30;;;;;;5019972;28;20198;-63
2023/11/24 08:43:26;;;;;;;8.90;2.30;;;8.40;20.60;;;;;;5020062;28;20288;-63
2023/11/24 08:45:54;;;;;;;7.37;2.80;;;8.50;13.90;;;;;;5022080;28;20683;-64
2023/11/24 08:48:24;;;;;;;13.17;2.70;;;8.60;2.40;;;;;;5020737;28;20222;-64
2023/11/24 08:50:52;;;;;;;10.53;2.87;;;8.60;1.00;;;;;;5017766;28;20225;-63
2023/11/24 08:53:21;;;;;;;9.00;2.60;;;8.70;1.00;;;;;;5020003;28;20222;-63
2023/11/24 08:55:49;;;;;;;8.07;2.30;;;8.70;1.00;;;;;;5018416;28;20190;-61
2023/11/24 08:58:17;;;;;;;4.30;1.90;;;8.70;1.00;;;;;;5024896;28;20220;-64
2023/11/24 09:00:46;;;;;;;10.70;2.40;;;8.70;1.00;;;;;;5013958;28;20222;-64
2023/11/24 09:03:15;;;;;;;8.23;2.10;;;8.70;1.00;;;;;;5018666;28;20225;-64
2023/11/24 09:05:45;;;;;;;6.73;2.10;;;8.70;1.00;;;;;;5014879;28;20213;-64
2023/11/24 09:08:13;;;;;;;12.07;2.53;;;8.70;1.00;;;;;;5017616;28;20228;-63
2023/11/24 09:10:46;;;;;;;8.40;2.10;;;8.70;1.00;;;;;;5019896;28;20193;-62
2023/11/24 09:13:14;;;;;;;8.07;2.63;;;8.70;1.00;;;;;;5019840;28;20740;-63
2023/11/24 09:15:43;;;;;;;6.17;2.33;;;8.60;1.00;;;;;;5017915;28;20244;-64
2023/11/24 09:18:11;;;;;;;7.10;2.30;;;8.60;1.00;;;;;;5018139;28;20225;-63
2023/11/24 09:20:39;;;;;;;9.80;2.20;;;8.60;1.00;;;;;;5020835;28;20284;-63
2023/11/24 09:23:09;;;;;;;6.63;2.40;;;8.60;1.00;;;;;;5018805;28;20327;-63
2023/11/24 09:25:37;;;;;;;9.73;2.67;;;8.60;1.00;;;;;;5020561;28;20214;-63
2023/11/24 09:28:05;;;;;;;10.70;2.77;;;8.60;1.00;;;;;;5018223;28;20226;-63
2023/11/24 09:30:34;;;;;;;10.40;2.50;;;8.60;1.00;;;;;;5014468;28;20217;-64
2023/11/24 09:33:04;;;;;;;5.53;2.20;;;8.60;1.00;;;;;;5015741;28;20738;-63
2023/11/24 09:35:33;;;;;;;10.10;2.53;;;8.60;1.00;;;;;;5021639;28;20213;-63
2023/11/24 09:38:01;;;;;;;6.83;2.30;;;8.60;1.00;;;;;;5015979;28;20224;-63
2023/11/24 09:40:31;;;;;;;7.37;2.17;;;8.60;1.00;;;;;;5018755;28;20201;-63
2023/11/24 09:43:03;;;;;;;7.20;2.13;;;8.70;1.00;;;;;;5019093;28;20657;-63
2023/11/24 09:45:32;;;;;;;18.13;2.73;;;8.70;1.00;;;;;;5020531;28;20217;-64
2023/11/24 09:48:01;;;;;;;8.73;2.50;;;8.70;19.10;;;;;;5019507;28;20766;-63
2023/11/24 09:50:30;;;;;;;8.90;2.80;;;8.50;81.30;;;;;;5017055;28;20700;-62
2023/11/24 09:52:59;;;;;;;11.77;2.47;;;8.30;99.90;;;;;;5020748;28;20691;-62
2023/11/24 09:55:28;;;;;;;9.60;2.70;;;8.00;99.90;;;;;;5014157;28;20198;-63
2023/11/24 09:57:59;;;;;;;9.87;2.90;;;7.80;99.90;;;;;;5017679;28;20218;-63
2023/11/24 10:00:27;;;;;;;8.63;2.57;;;7.70;99.90;;;;;;5019749;28;20566;-63
2023/11/24 10:02:59;;;;;;;8.73;2.10;;;7.60;99.90;;;;;;5013219;28;20607;-63
2023/11/24 10:05:28;;;;;;;12.83;2.63;;;7.40;99.90;;;;;;5023119;28;20218;-62
2023/11/24 10:07:58;;;;;;;8.90;1.93;;;7.40;99.90;;;;;;5015479;28;20198;-62
2023/11/24 10:10:27;;;;;;;5.43;2.03;;;7.40;99.90;;;;;;5019814;28;20194;-63
2023/11/24 10:12:58;;;;;;;3.00;1.73;;;7.40;99.90;;;;;;5016888;28;20615;-63
2023/11/24 10:15:28;;;;;;;5.97;2.37;;;7.40;99.90;;;;;;5020768;28;20339;-64
2023/11/24 10:17:57;;;;;;;7.47;2.10;;;7.50;99.90;;;;;;5021860;28;20324;-63
2023/11/24 10:20:28;;;;;;;6.80;1.90;;;7.50;99.90;;;;;;5016345;28;20212;-62
2023/11/24 10:22:58;;;;;;;5.37;2.13;;;7.50;99.90;;;;;;5016535;28;20234;-62
2023/11/24 10:25:28;;;;;;;7.53;2.03;;;7.40;99.90;;;;;;5019742;28;20633;-63
2023/11/24 10:27:58;;;;;;;3.93;1.67;;;7.20;99.90;;;;;;5019878;28;20229;-63
2023/11/24 10:30:28;;;;;;;8.60;1.90;;;7.10;99.90;;;;;;5020147;28;20311;-62
2023/11/24 10:32:58;;;;;;;4.17;1.83;;;7.00;99.90;;;;;;5019744;28;20291;-63
2023/11/24 10:35:27;;;;;;;5.43;1.73;;;7.10;99.90;;;;;;5020732;28;20257;-63
2023/11/24 10:37:56;;;;;;;6.07;1.90;;;7.10;99.90;;;;;;5024567;28;20563;-63
2023/11/24 10:40:26;;;;;;;6.27;1.87;;;7.10;99.90;;;;;;5020103;28;20189;-63
2023/11/24 10:42:56;;;;;;;7.07;2.03;;;7.10;99.90;;;;;;5021948;28;20309;-63
2023/11/24 10:45:30;;;;;;;3.73;1.97;;;7.10;99.90;;;;;;5021368;28;20213;-63
2023/11/24 10:48:15;;;;;;;6.57;2.23;;;7.00;99.90;;;;;;5024638;28;20271;-63
2023/11/24 10:50:50;;;;;;;1.60;1.40;;;7.00;99.90;;;;;;5020035;28;20233;-63
2023/11/24 10:53:25;;;;;;;4.23;1.60;;;6.90;99.90;;;;;;5024025;28;20233;-62
2023/11/24 10:55:54;;;;;;;3.43;1.83;;;6.70;99.90;;;;;;5026012;28;20204;-63
2023/11/24 10:58:24;;;;;;;3.73;1.50;;;6.60;99.90;;;;;;5024031;28;20205;-63
2023/11/24 11:00:53;;;;;;;2.20;1.40;;;6.60;99.90;;;;;;5023517;28;20245;-63
2023/11/24 11:03:22;;;;;;;1.83;1.73;;;6.70;99.90;;;;;;5020051;28;20300;-63
2023/11/24 11:06:05;;;;;;;5.03;1.63;;;6.80;99.90;;;;;;5022781;28;20232;-63
2023/11/24 11:08:38;;;;;;;3.80;2.00;;;6.80;99.90;;;;;;5017493;28;20225;-63
2023/11/24 11:11:30;;;;;;;3.20;2.10;;;7.00;99.90;;;;;;5018284;28;20603;-64
2023/11/24 11:13:59;;;;;;;2.87;1.50;;;7.00;99.90;;;;;;5021527;28;20201;-63
2023/11/24 11:16:29;;;;;;;4.13;1.93;;;6.90;99.90;;;;;;5019690;28;20214;-63
2023/11/24 11:19:19;;;;;;;1.70;1.60;;;6.80;99.90;;;;;;5022154;28;20253;-63
2023/11/24 11:21:52;;;;;;;1.90;1.33;;;6.80;99.90;;;;;;5020059;28;20221;-63
2023/11/24 11:24:24;;;;;;;2.20;1.57;;;6.70;99.90;;;;;;5022476;28;20225;-63
2023/11/24 11:26:53;;;;;;;3.60;1.50;;;6.70;99.90;;;;;;5023033;28;20229;-63
2023/11/24 11:29:23;;;;;;;2.90;1.60;;;6.70;99.90;;;;;;5022202;28;20728;-63
2023/11/24 11:31:52;;;;;;;8.70;1.67;;;6.70;99.90;;;;;;5026819;28;20199;-63
2023/11/24 11:34:29;;;;;;;3.73;1.60;;;6.70;99.90;;;;;;5027860;28;20185;-63
2023/11/24 11:37:06;;;;;;;3.20;1.50;;;6.70;99.90;;;;;;5022696;28;20308;-63
2023/11/24 11:39:43;;;;;;;5.70;1.60;;;6.70;99.90;;;;;;5022258;28;20576;-63
2023/11/24 11:42:12;;;;;;;5.20;1.57;;;6.60;99.90;;;;;;5020268;28;20248;-63
2023/11/24 11:44:46;;;;;;;3.87;1.40;;;6.50;99.90;;;;;;5023573;28;20236;-63
2023/11/24 11:47:24;;;;;;;2.93;1.40;;;6.40;99.90;;;;;;5023559;28;20239;-63
2023/11/24 11:49:55;;;;;;;3.13;1.30;;;6.40;99.90;;;;;;5024112;28;20276;-62
2023/11/24 11:52:25;;;;;;;2.80;1.40;;;6.40;99.90;;;;;;5018342;28;20487;-63
2023/11/24 11:55:00;;;;;;;1.80;1.40;;;6.50;99.90;;;;;;5018521;28;20316;-63
2023/11/24 11:57:29;;;;;;;4.10;1.50;;;6.60;99.90;;;;;;5015229;28;20228;-63
2023/11/24 11:59:57;;;;;;;1.90;1.73;;;6.60;99.90;;;;;;5022139;28;20286;-63
2023/11/24 12:02:25;;;;;;;6.67;2.47;;;6.70;99.90;;;;;;5014863;28;20384;-63
2023/11/24 12:04:55;;;;;;;1.90;1.53;;;6.70;99.90;;;;;;5019737;28;20214;-62
2023/11/24 12:07:26;;;;;;;3.30;1.90;;;6.70;99.90;;;;;;5020000;28;20213;-63
2023/11/24 12:09:54;;;;;;;2.47;1.53;;;6.80;99.90;;;;;;5015496;28;20313;-63
2023/11/24 12:12:24;;;;;;;7.00;2.10;;;6.80;99.90;;;;;;5019911;28;20226;-63
2023/11/24 12:14:54;;;;;;;3.53;2.20;;;6.80;99.90;;;;;;5017265;28;20599;-63
2023/11/24 12:17:23;;;;;;;3.60;1.80;;;6.80;99.90;;;;;;5022249;28;20266;-63
2023/11/24 12:19:53;;;;;;;5.97;2.10;;;6.70;99.90;;;;;;5026177;28;20198;-62
2023/11/24 12:22:23;;;;;;;3.63;1.90;;;6.70;99.90;;;;;;5028543;28;20287;-63
2023/11/24 12:24:53;;;;;;;7.47;2.17;;;6.70;99.90;;;;;;5022277;28;20243;-63
2023/11/24 12:27:22;;;;;;;6.03;1.93;;;6.60;99.90;;;;;;5015740;28;20405;-63
2023/11/24 12:29:51;;;;;;;5.70;1.97;;;6.70;99.90;;;;;;5018923;28;20248;-63
2023/11/24 12:32:24;;;;;;;5.73;2.20;;;6.90;99.90;;;;;;5017215;28;20300;-63
2023/11/24 12:34:52;;;;;;;11.00;2.10;;;7.10;99.90;;;;;;5020934;28;20182;-62
2023/11/24 12:37:23;;;;;;;10.97;2.60;;;7.20;99.90;;;;;;5022445;28;20723;-63
2023/11/24 12:39:53;;;;;;;7.03;2.60;;;7.10;99.90;;;;;;5021413;28;20324;-63
2023/11/24 12:42:23;;;;;;;8.53;2.40;;;7.00;99.90;;;;;;5022739;28;20705;-63
2023/11/24 12:44:52;;;;;;;13.50;2.97;;;6.90;99.90;;;;;;5021199;28;20218;-63
2023/11/24 12:47:24;;;;;;;6.23;2.17;;;6.90;99.90;;;;;;5019588;28;20229;-63
2023/11/24 12:50:12;;;;;;;5.57;1.97;;;6.80;99.90;;;;;;5024510;28;20228;-63
2023/11/24 12:52:44;;;;;;;10.33;2.50;;;6.80;99.90;;;;;;5019452;28;20546;-63
2023/11/24 12:55:14;;;;;;;9.30;2.50;;;6.80;99.90;;;;;;5037913;28;20770;-63
2023/11/24 12:57:43;;;;;;;8.03;2.43;;;6.80;99.90;;;;;;5024340;28;20221;-63
2023/11/24 13:00:14;;;;;;;6.63;2.37;;;6.90;99.90;;;;;;5018701;28;20218;-63